sensor_id;sensor_type;location;lat;lon;timestamp;P1;durP1;ratioP1;P2;durP2;ratioP2
57567;SDS011;43403;51.948;5.922;2023-04-30T00:02:10;9.00;;;5.05;;
57567;SDS011;43403;51.948;5.922;2023-04-30T00:04:36;11.20;;;5.57;;
57567;SDS011;43403;51.948;5.922;2023-04-30T00:07:03;10.15;;;5.88;;
57567;SDS011;43403;51.948;5.922;2023-04-30T00:09:29;10.15;;;5.22;;
57567;SDS011;43403;51.948;5.922;2023-04-30T00:11:56;9.55;;;5.68;;
57567;SDS011;43403;51.948;5.922;2023-04-30T00:14:22;10.35;;;5.32;;
57567;SDS011;43403;51.948;5.922;2023-04-30T00:16:49;8.73;;;6.05;;
57567;SDS011;43403;51.948;5.922;2023-04-30T00:19:15;11.75;;;5.78;;
57567;SDS011;43403;51.948;5.922;2023-04-30T00:21:42;11.68;;;6.10;;
57567;SDS011;43403;51.948;5.922;2023-04-30T00:24:08;8.05;;;5.05;;
57567;SDS011;43403;51.948;5.922;2023-04-30T00:26:35;11.65;;;5.47;;
57567;SDS011;43403;51.948;5.922;2023-04-30T00:29:01;8.15;;;5.07;;
57567;SDS011;43403;51.948;5.922;2023-04-30T00:31:28;7.38;;;4.90;;
57567;SDS011;43403;51.948;5.922;2023-04-30T00:33:54;11.32;;;5.93;;
57567;SDS011;43403;51.948;5.922;2023-04-30T00:36:21;9.07;;;5.20;;
57567;SDS011;43403;51.948;5.922;2023-04-30T00:38:48;9.18;;;5.40;;
57567;SDS011;43403;51.948;5.922;2023-04-30T00:41:15;10.07;;;5.60;;
57567;SDS011;43403;51.948;5.922;2023-04-30T00:43:41;13.68;;;5.70;;
57567;SDS011;43403;51.948;5.922;2023-04-30T00:46:08;9.52;;;5.22;;
57567;SDS011;43403;51.948;5.922;2023-04-30T00:48:35;7.50;;;5.15;;
57567;SDS011;43403;51.948;5.922;2023-04-30T00:51:02;11.48;;;6.68;;
57567;SDS011;43403;51.948;5.922;2023-04-30T00:53:30;10.05;;;6.25;;
57567;SDS011;43403;51.948;5.922;2023-04-30T00:55:56;12.15;;;5.88;;
57567;SDS011;43403;51.948;5.922;2023-04-30T00:58:24;11.82;;;6.65;;
57567;SDS011;43403;51.948;5.922;2023-04-30T01:00:51;9.90;;;5.85;;
57567;SDS011;43403;51.948;5.922;2023-04-30T01:03:18;9.13;;;6.32;;
57567;SDS011;43403;51.948;5.922;2023-04-30T01:05:45;10.13;;;6.25;;
57567;SDS011;43403;51.948;5.922;2023-04-30T01:08:12;11.68;;;7.75;;
57567;SDS011;43403;51.948;5.922;2023-04-30T01:10:51;11.00;;;6.28;;
57567;SDS011;43403;51.948;5.922;2023-04-30T01:16:25;10.48;;;6.85;;
57567;SDS011;43403;51.948;5.922;2023-04-30T01:18:59;12.32;;;6.55;;
57567;SDS011;43403;51.948;5.922;2023-04-30T01:21:30;11.55;;;7.15;;
57567;SDS011;43403;51.948;5.922;2023-04-30T01:27:06;9.20;;;6.18;;
57567;SDS011;43403;51.948;5.922;2023-04-30T01:29:49;9.23;;;5.80;;
57567;SDS011;43403;51.948;5.922;2023-04-30T01:32:16;10.52;;;6.68;;
57567;SDS011;43403;51.948;5.922;2023-04-30T01:34:42;10.73;;;6.53;;
57567;SDS011;43403;51.948;5.922;2023-04-30T01:43:16;12.57;;;6.55;;
57567;SDS011;43403;51.948;5.922;2023-04-30T01:46:07;9.75;;;6.80;;
57567;SDS011;43403;51.948;5.922;2023-04-30T01:48:45;12.70;;;6.93;;
57567;SDS011;43403;51.948;5.922;2023-04-30T01:53:56;10.77;;;6.85;;
57567;SDS011;43403;51.948;5.922;2023-04-30T01:56:30;9.68;;;6.50;;
57567;SDS011;43403;51.948;5.922;2023-04-30T01:59:01;8.52;;;6.35;;
57567;SDS011;43403;51.948;5.922;2023-04-30T02:01:30;9.52;;;6.55;;
57567;SDS011;43403;51.948;5.922;2023-04-30T02:03:58;11.45;;;5.97;;
57567;SDS011;43403;51.948;5.922;2023-04-30T02:06:25;9.65;;;6.07;;
57567;SDS011;43403;51.948;5.922;2023-04-30T02:08:56;10.07;;;5.90;;
57567;SDS011;43403;51.948;5.922;2023-04-30T02:11:28;8.48;;;6.05;;
57567;SDS011;43403;51.948;5.922;2023-04-30T02:13:54;9.38;;;6.45;;
57567;SDS011;43403;51.948;5.922;2023-04-30T02:16:21;9.88;;;6.20;;
57567;SDS011;43403;51.948;5.922;2023-04-30T02:18:48;10.45;;;5.95;;
57567;SDS011;43403;51.948;5.922;2023-04-30T02:21:14;9.02;;;6.03;;
57567;SDS011;43403;51.948;5.922;2023-04-30T02:23:41;10.00;;;5.78;;
57567;SDS011;43403;51.948;5.922;2023-04-30T02:26:07;9.18;;;6.45;;
57567;SDS011;43403;51.948;5.922;2023-04-30T02:28:34;10.23;;;6.03;;
57567;SDS011;43403;51.948;5.922;2023-04-30T02:31:01;9.82;;;6.45;;
57567;SDS011;43403;51.948;5.922;2023-04-30T02:33:27;13.68;;;5.63;;
57567;SDS011;43403;51.948;5.922;2023-04-30T02:35:54;9.75;;;5.93;;
57567;SDS011;43403;51.948;5.922;2023-04-30T02:38:20;11.40;;;5.65;;
57567;SDS011;43403;51.948;5.922;2023-04-30T02:40:47;9.27;;;5.68;;
57567;SDS011;43403;51.948;5.922;2023-04-30T02:43:13;9.27;;;5.75;;
57567;SDS011;43403;51.948;5.922;2023-04-30T02:45:40;10.77;;;5.85;;
57567;SDS011;43403;51.948;5.922;2023-04-30T02:48:06;10.48;;;6.10;;
57567;SDS011;43403;51.948;5.922;2023-04-30T02:50:33;9.45;;;5.82;;
57567;SDS011;43403;51.948;5.922;2023-04-30T02:52:59;11.00;;;6.15;;
57567;SDS011;43403;51.948;5.922;2023-04-30T02:55:26;11.95;;;5.97;;
57567;SDS011;43403;51.948;5.922;2023-04-30T02:57:52;9.45;;;6.07;;
57567;SDS011;43403;51.948;5.922;2023-04-30T03:00:19;9.07;;;6.13;;
57567;SDS011;43403;51.948;5.922;2023-04-30T03:02:46;8.90;;;5.82;;
57567;SDS011;43403;51.948;5.922;2023-04-30T03:05:13;9.38;;;5.63;;
57567;SDS011;43403;51.948;5.922;2023-04-30T03:07:40;12.35;;;6.80;;
57567;SDS011;43403;51.948;5.922;2023-04-30T03:10:07;8.73;;;4.82;;
57567;SDS011;43403;51.948;5.922;2023-04-30T03:12:34;9.35;;;5.97;;
57567;SDS011;43403;51.948;5.922;2023-04-30T03:15:01;8.82;;;5.47;;
57567;SDS011;43403;51.948;5.922;2023-04-30T03:17:27;10.23;;;6.32;;
57567;SDS011;43403;51.948;5.922;2023-04-30T03:19:54;10.73;;;6.40;;
57567;SDS011;43403;51.948;5.922;2023-04-30T03:22:21;9.93;;;5.85;;
57567;SDS011;43403;51.948;5.922;2023-04-30T03:24:49;9.80;;;6.80;;
57567;SDS011;43403;51.948;5.922;2023-04-30T03:27:15;11.57;;;6.70;;
57567;SDS011;43403;51.948;5.922;2023-04-30T03:29:42;11.38;;;6.03;;
57567;SDS011;43403;51.948;5.922;2023-04-30T03:32:08;10.93;;;6.47;;
57567;SDS011;43403;51.948;5.922;2023-04-30T03:34:35;11.65;;;7.00;;
57567;SDS011;43403;51.948;5.922;2023-04-30T03:37:03;9.63;;;6.68;;
57567;SDS011;43403;51.948;5.922;2023-04-30T03:39:29;12.07;;;6.63;;
57567;SDS011;43403;51.948;5.922;2023-04-30T03:41:56;10.70;;;6.72;;
57567;SDS011;43403;51.948;5.922;2023-04-30T03:44:23;9.40;;;6.75;;
57567;SDS011;43403;51.948;5.922;2023-04-30T03:46:49;10.10;;;6.18;;
57567;SDS011;43403;51.948;5.922;2023-04-30T03:49:16;11.27;;;7.25;;
57567;SDS011;43403;51.948;5.922;2023-04-30T03:51:43;10.20;;;6.50;;
57567;SDS011;43403;51.948;5.922;2023-04-30T03:54:09;11.60;;;6.85;;
57567;SDS011;43403;51.948;5.922;2023-04-30T03:56:36;12.40;;;7.28;;
57567;SDS011;43403;51.948;5.922;2023-04-30T03:59:03;10.10;;;7.15;;
57567;SDS011;43403;51.948;5.922;2023-04-30T04:01:31;9.30;;;6.53;;
57567;SDS011;43403;51.948;5.922;2023-04-30T04:03:57;11.23;;;6.95;;
57567;SDS011;43403;51.948;5.922;2023-04-30T04:06:24;14.57;;;7.18;;
57567;SDS011;43403;51.948;5.922;2023-04-30T04:08:52;14.25;;;7.28;;
57567;SDS011;43403;51.948;5.922;2023-04-30T04:11:18;11.60;;;7.82;;
57567;SDS011;43403;51.948;5.922;2023-04-30T04:13:45;13.43;;;7.15;;
57567;SDS011;43403;51.948;5.922;2023-04-30T04:16:12;13.32;;;7.43;;
57567;SDS011;43403;51.948;5.922;2023-04-30T04:18:38;13.30;;;7.28;;
57567;SDS011;43403;51.948;5.922;2023-04-30T04:21:05;11.20;;;6.88;;
57567;SDS011;43403;51.948;5.922;2023-04-30T04:23:32;11.57;;;6.97;;
57567;SDS011;43403;51.948;5.922;2023-04-30T04:25:59;12.13;;;7.25;;
57567;SDS011;43403;51.948;5.922;2023-04-30T04:28:25;11.52;;;7.03;;
57567;SDS011;43403;51.948;5.922;2023-04-30T04:30:52;10.93;;;7.68;;
57567;SDS011;43403;51.948;5.922;2023-04-30T04:33:19;11.27;;;6.30;;
57567;SDS011;43403;51.948;5.922;2023-04-30T04:35:45;9.98;;;6.88;;
57567;SDS011;43403;51.948;5.922;2023-04-30T04:38:12;14.68;;;7.43;;
57567;SDS011;43403;51.948;5.922;2023-04-30T04:40:39;14.70;;;7.82;;
57567;SDS011;43403;51.948;5.922;2023-04-30T04:43:06;10.95;;;7.38;;
57567;SDS011;43403;51.948;5.922;2023-04-30T04:45:33;9.98;;;7.55;;
57567;SDS011;43403;51.948;5.922;2023-04-30T04:48:00;14.23;;;6.82;;
57567;SDS011;43403;51.948;5.922;2023-04-30T04:50:27;11.63;;;7.80;;
57567;SDS011;43403;51.948;5.922;2023-04-30T04:52:54;12.50;;;7.20;;
57567;SDS011;43403;51.948;5.922;2023-04-30T04:55:20;12.43;;;6.85;;
57567;SDS011;43403;51.948;5.922;2023-04-30T04:57:47;9.93;;;7.30;;
57567;SDS011;43403;51.948;5.922;2023-04-30T05:00:13;14.55;;;8.38;;
57567;SDS011;43403;51.948;5.922;2023-04-30T05:02:40;13.25;;;8.07;;
57567;SDS011;43403;51.948;5.922;2023-04-30T05:05:07;10.48;;;7.30;;
57567;SDS011;43403;51.948;5.922;2023-04-30T05:07:34;11.85;;;7.47;;
57567;SDS011;43403;51.948;5.922;2023-04-30T05:10:00;13.43;;;7.93;;
57567;SDS011;43403;51.948;5.922;2023-04-30T05:12:27;12.95;;;8.00;;
57567;SDS011;43403;51.948;5.922;2023-04-30T05:14:54;15.23;;;8.40;;
57567;SDS011;43403;51.948;5.922;2023-04-30T05:17:21;13.13;;;7.68;;
57567;SDS011;43403;51.948;5.922;2023-04-30T05:19:47;16.27;;;8.40;;
57567;SDS011;43403;51.948;5.922;2023-04-30T05:22:16;15.70;;;7.53;;
57567;SDS011;43403;51.948;5.922;2023-04-30T05:24:42;15.38;;;7.68;;
57567;SDS011;43403;51.948;5.922;2023-04-30T05:27:09;14.75;;;8.75;;
57567;SDS011;43403;51.948;5.922;2023-04-30T05:29:37;11.45;;;7.80;;
57567;SDS011;43403;51.948;5.922;2023-04-30T05:32:03;12.60;;;7.75;;
57567;SDS011;43403;51.948;5.922;2023-04-30T05:34:30;9.23;;;6.03;;
57567;SDS011;43403;51.948;5.922;2023-04-30T05:36:57;12.55;;;7.95;;
57567;SDS011;43403;51.948;5.922;2023-04-30T05:39:23;14.32;;;8.32;;
57567;SDS011;43403;51.948;5.922;2023-04-30T05:41:50;12.80;;;8.15;;
57567;SDS011;43403;51.948;5.922;2023-04-30T05:44:18;11.40;;;8.02;;
57567;SDS011;43403;51.948;5.922;2023-04-30T05:46:45;14.02;;;8.32;;
57567;SDS011;43403;51.948;5.922;2023-04-30T05:49:11;14.02;;;8.55;;
57567;SDS011;43403;51.948;5.922;2023-04-30T05:51:38;12.27;;;8.02;;
57567;SDS011;43403;51.948;5.922;2023-04-30T05:54:04;12.45;;;8.05;;
57567;SDS011;43403;51.948;5.922;2023-04-30T05:56:31;14.02;;;7.97;;
57567;SDS011;43403;51.948;5.922;2023-04-30T05:58:57;13.10;;;8.88;;
57567;SDS011;43403;51.948;5.922;2023-04-30T06:01:24;11.32;;;7.80;;
57567;SDS011;43403;51.948;5.922;2023-04-30T06:03:50;10.55;;;6.32;;
57567;SDS011;43403;51.948;5.922;2023-04-30T06:06:17;14.15;;;9.02;;
57567;SDS011;43403;51.948;5.922;2023-04-30T06:08:44;10.90;;;8.05;;
57567;SDS011;43403;51.948;5.922;2023-04-30T06:11:11;13.73;;;8.20;;
57567;SDS011;43403;51.948;5.922;2023-04-30T06:13:38;12.07;;;7.43;;
57567;SDS011;43403;51.948;5.922;2023-04-30T06:16:06;11.55;;;7.53;;
57567;SDS011;43403;51.948;5.922;2023-04-30T06:18:33;13.67;;;8.17;;
57567;SDS011;43403;51.948;5.922;2023-04-30T06:21:00;11.48;;;7.97;;
57567;SDS011;43403;51.948;5.922;2023-04-30T06:23:26;13.35;;;8.43;;
57567;SDS011;43403;51.948;5.922;2023-04-30T06:25:53;14.60;;;8.75;;
57567;SDS011;43403;51.948;5.922;2023-04-30T06:28:20;13.52;;;8.20;;
57567;SDS011;43403;51.948;5.922;2023-04-30T06:30:46;9.95;;;6.22;;
57567;SDS011;43403;51.948;5.922;2023-04-30T06:33:13;12.05;;;8.30;;
57567;SDS011;43403;51.948;5.922;2023-04-30T06:35:39;10.15;;;7.63;;
57567;SDS011;43403;51.948;5.922;2023-04-30T06:38:06;11.95;;;7.95;;
57567;SDS011;43403;51.948;5.922;2023-04-30T06:40:33;11.55;;;7.18;;
57567;SDS011;43403;51.948;5.922;2023-04-30T06:43:00;11.50;;;7.47;;
57567;SDS011;43403;51.948;5.922;2023-04-30T06:45:26;11.40;;;7.50;;
57567;SDS011;43403;51.948;5.922;2023-04-30T06:47:54;11.18;;;7.03;;
57567;SDS011;43403;51.948;5.922;2023-04-30T06:50:20;12.90;;;7.53;;
57567;SDS011;43403;51.948;5.922;2023-04-30T06:52:47;12.95;;;8.20;;
57567;SDS011;43403;51.948;5.922;2023-04-30T06:55:14;10.82;;;7.57;;
57567;SDS011;43403;51.948;5.922;2023-04-30T06:57:41;8.27;;;6.07;;
57567;SDS011;43403;51.948;5.922;2023-04-30T07:00:07;13.10;;;7.18;;
57567;SDS011;43403;51.948;5.922;2023-04-30T07:02:34;11.38;;;7.78;;
57567;SDS011;43403;51.948;5.922;2023-04-30T07:05:02;10.02;;;6.55;;
57567;SDS011;43403;51.948;5.922;2023-04-30T07:07:28;9.70;;;6.93;;
57567;SDS011;43403;51.948;5.922;2023-04-30T07:09:55;9.93;;;6.90;;
57567;SDS011;43403;51.948;5.922;2023-04-30T07:12:22;11.27;;;7.55;;
57567;SDS011;43403;51.948;5.922;2023-04-30T07:14:49;7.22;;;4.80;;
57567;SDS011;43403;51.948;5.922;2023-04-30T07:17:15;8.43;;;6.07;;
57567;SDS011;43403;51.948;5.922;2023-04-30T07:19:42;11.35;;;7.38;;
57567;SDS011;43403;51.948;5.922;2023-04-30T07:22:09;9.55;;;6.15;;
57567;SDS011;43403;51.948;5.922;2023-04-30T07:24:35;14.60;;;6.95;;
57567;SDS011;43403;51.948;5.922;2023-04-30T07:27:02;9.55;;;6.00;;
57567;SDS011;43403;51.948;5.922;2023-04-30T07:29:29;13.57;;;7.47;;
57567;SDS011;43403;51.948;5.922;2023-04-30T07:31:55;12.02;;;6.93;;
57567;SDS011;43403;51.948;5.922;2023-04-30T07:34:23;10.80;;;7.13;;
57567;SDS011;43403;51.948;5.922;2023-04-30T07:36:50;6.37;;;4.87;;
57567;SDS011;43403;51.948;5.922;2023-04-30T07:39:17;8.98;;;6.15;;
57567;SDS011;43403;51.948;5.922;2023-04-30T07:41:43;11.32;;;6.35;;
57567;SDS011;43403;51.948;5.922;2023-04-30T07:44:10;11.90;;;6.97;;
57567;SDS011;43403;51.948;5.922;2023-04-30T07:46:37;12.80;;;6.38;;
57567;SDS011;43403;51.948;5.922;2023-04-30T07:49:04;8.38;;;5.20;;
57567;SDS011;43403;51.948;5.922;2023-04-30T07:51:30;6.80;;;4.30;;
57567;SDS011;43403;51.948;5.922;2023-04-30T07:53:58;11.60;;;5.80;;
57567;SDS011;43403;51.948;5.922;2023-04-30T07:56:25;8.10;;;5.55;;
57567;SDS011;43403;51.948;5.922;2023-04-30T07:58:52;10.98;;;5.75;;
57567;SDS011;43403;51.948;5.922;2023-04-30T08:01:18;10.18;;;5.25;;
57567;SDS011;43403;51.948;5.922;2023-04-30T08:03:45;8.95;;;6.55;;
57567;SDS011;43403;51.948;5.922;2023-04-30T08:06:12;12.23;;;6.57;;
57567;SDS011;43403;51.948;5.922;2023-04-30T08:08:38;10.68;;;6.72;;
57567;SDS011;43403;51.948;5.922;2023-04-30T08:11:05;9.65;;;6.70;;
57567;SDS011;43403;51.948;5.922;2023-04-30T08:13:31;12.38;;;7.20;;
57567;SDS011;43403;51.948;5.922;2023-04-30T08:15:58;13.00;;;6.65;;
57567;SDS011;43403;51.948;5.922;2023-04-30T08:18:25;9.82;;;6.78;;
57567;SDS011;43403;51.948;5.922;2023-04-30T08:20:51;10.25;;;5.80;;
57567;SDS011;43403;51.948;5.922;2023-04-30T08:23:18;11.13;;;6.05;;
57567;SDS011;43403;51.948;5.922;2023-04-30T08:25:44;10.05;;;6.25;;
57567;SDS011;43403;51.948;5.922;2023-04-30T08:28:11;13.32;;;6.57;;
57567;SDS011;43403;51.948;5.922;2023-04-30T08:30:38;10.80;;;6.20;;
57567;SDS011;43403;51.948;5.922;2023-04-30T08:33:04;8.68;;;5.40;;
57567;SDS011;43403;51.948;5.922;2023-04-30T08:35:31;11.25;;;6.00;;
57567;SDS011;43403;51.948;5.922;2023-04-30T08:37:57;10.68;;;5.40;;
57567;SDS011;43403;51.948;5.922;2023-04-30T08:40:24;8.57;;;6.05;;
57567;SDS011;43403;51.948;5.922;2023-04-30T08:43:12;11.75;;;6.28;;
57567;SDS011;43403;51.948;5.922;2023-04-30T08:45:40;10.05;;;6.05;;
57567;SDS011;43403;51.948;5.922;2023-04-30T08:48:10;9.60;;;5.80;;
57567;SDS011;43403;51.948;5.922;2023-04-30T08:50:40;12.27;;;6.05;;
57567;SDS011;43403;51.948;5.922;2023-04-30T08:53:07;9.35;;;6.05;;
57567;SDS011;43403;51.948;5.922;2023-04-30T08:55:35;9.85;;;5.68;;
57567;SDS011;43403;51.948;5.922;2023-04-30T08:58:05;8.52;;;5.28;;
57567;SDS011;43403;51.948;5.922;2023-04-30T09:00:33;8.88;;;5.68;;
57567;SDS011;43403;51.948;5.922;2023-04-30T09:03:03;10.15;;;5.95;;
57567;SDS011;43403;51.948;5.922;2023-04-30T09:05:30;9.95;;;5.43;;
57567;SDS011;43403;51.948;5.922;2023-04-30T09:07:56;9.68;;;5.63;;
57567;SDS011;43403;51.948;5.922;2023-04-30T09:10:26;11.27;;;6.15;;
57567;SDS011;43403;51.948;5.922;2023-04-30T09:13:05;9.70;;;6.10;;
57567;SDS011;43403;51.948;5.922;2023-04-30T09:15:35;10.50;;;5.90;;
57567;SDS011;43403;51.948;5.922;2023-04-30T09:18:11;9.10;;;5.53;;
57567;SDS011;43403;51.948;5.922;2023-04-30T09:23:25;8.30;;;4.70;;
57567;SDS011;43403;51.948;5.922;2023-04-30T09:25:52;7.35;;;4.93;;
57567;SDS011;43403;51.948;5.922;2023-04-30T09:28:19;6.60;;;4.10;;
57567;SDS011;43403;51.948;5.922;2023-04-30T09:30:50;9.18;;;5.07;;
57567;SDS011;43403;51.948;5.922;2023-04-30T09:33:17;8.95;;;5.03;;
57567;SDS011;43403;51.948;5.922;2023-04-30T09:35:44;8.40;;;4.38;;
57567;SDS011;43403;51.948;5.922;2023-04-30T09:40:59;9.48;;;5.38;;
57567;SDS011;43403;51.948;5.922;2023-04-30T09:43:27;8.93;;;4.90;;
57567;SDS011;43403;51.948;5.922;2023-04-30T09:45:56;8.38;;;5.38;;
57567;SDS011;43403;51.948;5.922;2023-04-30T09:48:24;6.32;;;4.35;;
57567;SDS011;43403;51.948;5.922;2023-04-30T09:50:53;9.82;;;4.82;;
57567;SDS011;43403;51.948;5.922;2023-04-30T09:53:19;6.65;;;4.25;;
57567;SDS011;43403;51.948;5.922;2023-04-30T09:55:47;7.40;;;4.40;;
57567;SDS011;43403;51.948;5.922;2023-04-30T09:58:15;7.60;;;4.20;;
57567;SDS011;43403;51.948;5.922;2023-04-30T10:00:43;8.77;;;4.68;;
57567;SDS011;43403;51.948;5.922;2023-04-30T10:03:11;7.57;;;4.78;;
57567;SDS011;43403;51.948;5.922;2023-04-30T10:08:15;8.73;;;4.10;;
57567;SDS011;43403;51.948;5.922;2023-04-30T10:10:49;6.07;;;4.32;;
57567;SDS011;43403;51.948;5.922;2023-04-30T10:13:28;6.13;;;4.20;;
57567;SDS011;43403;51.948;5.922;2023-04-30T10:15:58;5.88;;;4.28;;
57567;SDS011;43403;51.948;5.922;2023-04-30T10:18:36;7.93;;;4.75;;
57567;SDS011;43403;51.948;5.922;2023-04-30T10:21:06;5.70;;;3.83;;
57567;SDS011;43403;51.948;5.922;2023-04-30T10:23:37;8.32;;;5.45;;
57567;SDS011;43403;51.948;5.922;2023-04-30T10:26:11;6.35;;;4.05;;
57567;SDS011;43403;51.948;5.922;2023-04-30T10:28:38;5.85;;;4.72;;
57567;SDS011;43403;51.948;5.922;2023-04-30T10:31:06;8.00;;;4.82;;
57567;SDS011;43403;51.948;5.922;2023-04-30T10:36:23;8.15;;;3.55;;
57567;SDS011;43403;51.948;5.922;2023-04-30T10:38:57;7.00;;;3.60;;
57567;SDS011;43403;51.948;5.922;2023-04-30T10:41:25;8.57;;;4.00;;
57567;SDS011;43403;51.948;5.922;2023-04-30T10:43:56;8.93;;;4.28;;
57567;SDS011;43403;51.948;5.922;2023-04-30T10:46:27;5.70;;;3.45;;
57567;SDS011;43403;51.948;5.922;2023-04-30T10:48:54;6.38;;;4.20;;
57567;SDS011;43403;51.948;5.922;2023-04-30T10:51:20;5.53;;;3.55;;
57567;SDS011;43403;51.948;5.922;2023-04-30T10:56:32;4.22;;;3.20;;
57567;SDS011;43403;51.948;5.922;2023-04-30T10:59:00;7.07;;;3.90;;
57567;SDS011;43403;51.948;5.922;2023-04-30T11:01:28;6.00;;;3.45;;
57567;SDS011;43403;51.948;5.922;2023-04-30T11:04:07;6.57;;;3.60;;
57567;SDS011;43403;51.948;5.922;2023-04-30T11:12:12;6.13;;;3.88;;
57567;SDS011;43403;51.948;5.922;2023-04-30T11:14:40;6.53;;;4.00;;
57567;SDS011;43403;51.948;5.922;2023-04-30T11:17:09;5.97;;;3.70;;
57567;SDS011;43403;51.948;5.922;2023-04-30T11:19:50;5.50;;;3.65;;
57567;SDS011;43403;51.948;5.922;2023-04-30T11:27:21;8.23;;;4.20;;
57567;SDS011;43403;51.948;5.922;2023-04-30T11:29:49;5.75;;;3.75;;
57567;SDS011;43403;51.948;5.922;2023-04-30T11:32:18;7.18;;;4.30;;
57567;SDS011;43403;51.948;5.922;2023-04-30T11:34:46;4.70;;;3.70;;
57567;SDS011;43403;51.948;5.922;2023-04-30T11:37:47;5.05;;;3.42;;
57567;SDS011;43403;51.948;5.922;2023-04-30T11:40:11;5.13;;;3.80;;
57567;SDS011;43403;51.948;5.922;2023-04-30T11:45:15;6.43;;;4.00;;
57567;SDS011;43403;51.948;5.922;2023-04-30T11:50:17;5.13;;;3.33;;
57567;SDS011;43403;51.948;5.922;2023-04-30T11:52:49;6.07;;;3.90;;
57567;SDS011;43403;51.948;5.922;2023-04-30T11:55:18;5.00;;;3.22;;
57567;SDS011;43403;51.948;5.922;2023-04-30T11:57:47;6.53;;;3.83;;
57567;SDS011;43403;51.948;5.922;2023-04-30T12:00:16;6.30;;;4.20;;
57567;SDS011;43403;51.948;5.922;2023-04-30T12:02:45;7.57;;;3.63;;
57567;SDS011;43403;51.948;5.922;2023-04-30T12:05:17;6.65;;;3.00;;
57567;SDS011;43403;51.948;5.922;2023-04-30T12:07:49;5.63;;;3.45;;
57567;SDS011;43403;51.948;5.922;2023-04-30T12:10:20;5.97;;;3.47;;
57567;SDS011;43403;51.948;5.922;2023-04-30T12:12:47;5.20;;;3.83;;
57567;SDS011;43403;51.948;5.922;2023-04-30T12:15:18;9.32;;;4.00;;
57567;SDS011;43403;51.948;5.922;2023-04-30T12:17:53;6.45;;;3.05;;
57567;SDS011;43403;51.948;5.922;2023-04-30T12:20:21;5.05;;;3.40;;
57567;SDS011;43403;51.948;5.922;2023-04-30T12:22:49;5.22;;;3.28;;
57567;SDS011;43403;51.948;5.922;2023-04-30T12:25:18;5.07;;;2.90;;
57567;SDS011;43403;51.948;5.922;2023-04-30T12:27:51;5.80;;;3.25;;
57567;SDS011;43403;51.948;5.922;2023-04-30T12:30:27;4.00;;;2.70;;
57567;SDS011;43403;51.948;5.922;2023-04-30T12:32:56;6.10;;;2.63;;
57567;SDS011;43403;51.948;5.922;2023-04-30T12:35:26;4.80;;;2.30;;
57567;SDS011;43403;51.948;5.922;2023-04-30T12:38:00;3.72;;;2.60;;
57567;SDS011;43403;51.948;5.922;2023-04-30T12:40:30;5.35;;;2.38;;
57567;SDS011;43403;51.948;5.922;2023-04-30T12:45:43;3.67;;;2.28;;
57567;SDS011;43403;51.948;5.922;2023-04-30T12:48:10;2.85;;;2.25;;
57567;SDS011;43403;51.948;5.922;2023-04-30T12:50:38;5.53;;;2.58;;
57567;SDS011;43403;51.948;5.922;2023-04-30T12:53:05;4.70;;;2.75;;
57567;SDS011;43403;51.948;5.922;2023-04-30T12:55:33;3.58;;;1.88;;
57567;SDS011;43403;51.948;5.922;2023-04-30T12:58:12;3.92;;;2.20;;
57567;SDS011;43403;51.948;5.922;2023-04-30T13:00:47;4.55;;;2.15;;
57567;SDS011;43403;51.948;5.922;2023-04-30T13:03:16;3.33;;;2.03;;
57567;SDS011;43403;51.948;5.922;2023-04-30T13:05:46;3.70;;;2.50;;
57567;SDS011;43403;51.948;5.922;2023-04-30T13:08:14;6.15;;;2.70;;
57567;SDS011;43403;51.948;5.922;2023-04-30T13:10:41;5.05;;;2.50;;
57567;SDS011;43403;51.948;5.922;2023-04-30T13:13:11;4.18;;;2.17;;
57567;SDS011;43403;51.948;5.922;2023-04-30T13:15:38;4.72;;;2.30;;
57567;SDS011;43403;51.948;5.922;2023-04-30T13:18:06;3.45;;;2.00;;
57567;SDS011;43403;51.948;5.922;2023-04-30T13:20:35;7.25;;;3.13;;
57567;SDS011;43403;51.948;5.922;2023-04-30T13:23:02;4.32;;;2.38;;
57567;SDS011;43403;51.948;5.922;2023-04-30T13:25:29;3.22;;;2.10;;
57567;SDS011;43403;51.948;5.922;2023-04-30T13:30:23;4.40;;;2.40;;
57567;SDS011;43403;51.948;5.922;2023-04-30T13:32:50;3.85;;;2.05;;
57567;SDS011;43403;51.948;5.922;2023-04-30T13:35:18;4.37;;;1.50;;
57567;SDS011;43403;51.948;5.922;2023-04-30T13:37:45;5.40;;;2.08;;
57567;SDS011;43403;51.948;5.922;2023-04-30T13:40:14;3.78;;;1.60;;
57567;SDS011;43403;51.948;5.922;2023-04-30T13:42:41;2.13;;;1.87;;
57567;SDS011;43403;51.948;5.922;2023-04-30T13:45:08;4.20;;;1.90;;
57567;SDS011;43403;51.948;5.922;2023-04-30T13:47:35;2.97;;;1.80;;
57567;SDS011;43403;51.948;5.922;2023-04-30T13:50:02;3.85;;;1.77;;
57567;SDS011;43403;51.948;5.922;2023-04-30T13:52:29;3.70;;;1.80;;
57567;SDS011;43403;51.948;5.922;2023-04-30T13:54:55;2.70;;;1.73;;
57567;SDS011;43403;51.948;5.922;2023-04-30T13:57:23;3.25;;;1.50;;
57567;SDS011;43403;51.948;5.922;2023-04-30T13:59:49;3.50;;;1.40;;
57567;SDS011;43403;51.948;5.922;2023-04-30T14:02:16;2.85;;;1.10;;
57567;SDS011;43403;51.948;5.922;2023-04-30T14:07:30;3.97;;;1.30;;
57567;SDS011;43403;51.948;5.922;2023-04-30T14:09:57;2.00;;;1.25;;
57567;SDS011;43403;51.948;5.922;2023-04-30T14:12:23;2.45;;;1.63;;
57567;SDS011;43403;51.948;5.922;2023-04-30T14:14:50;2.92;;;1.67;;
57567;SDS011;43403;51.948;5.922;2023-04-30T14:17:16;3.22;;;1.60;;
57567;SDS011;43403;51.948;5.922;2023-04-30T14:19:43;4.50;;;1.67;;
57567;SDS011;43403;51.948;5.922;2023-04-30T14:22:09;2.75;;;1.52;;
57567;SDS011;43403;51.948;5.922;2023-04-30T14:24:36;3.88;;;1.88;;
57567;SDS011;43403;51.948;5.922;2023-04-30T14:27:03;5.82;;;1.83;;
57567;SDS011;43403;51.948;5.922;2023-04-30T14:29:29;1.95;;;1.10;;
57567;SDS011;43403;51.948;5.922;2023-04-30T14:31:56;3.15;;;1.58;;
57567;SDS011;43403;51.948;5.922;2023-04-30T14:34:23;2.55;;;1.40;;
57567;SDS011;43403;51.948;5.922;2023-04-30T14:36:49;2.28;;;1.30;;
57567;SDS011;43403;51.948;5.922;2023-04-30T14:39:16;2.43;;;1.33;;
57567;SDS011;43403;51.948;5.922;2023-04-30T14:41:43;1.98;;;1.33;;
57567;SDS011;43403;51.948;5.922;2023-04-30T14:44:09;3.25;;;1.83;;
57567;SDS011;43403;51.948;5.922;2023-04-30T14:46:36;2.78;;;1.30;;
57567;SDS011;43403;51.948;5.922;2023-04-30T14:49:03;2.20;;;1.02;;
57567;SDS011;43403;51.948;5.922;2023-04-30T14:51:29;3.03;;;1.15;;
57567;SDS011;43403;51.948;5.922;2023-04-30T14:53:57;3.17;;;1.10;;
57567;SDS011;43403;51.948;5.922;2023-04-30T14:56:24;2.20;;;1.03;;
57567;SDS011;43403;51.948;5.922;2023-04-30T14:58:51;3.95;;;1.20;;
57567;SDS011;43403;51.948;5.922;2023-04-30T15:01:18;4.45;;;1.60;;
57567;SDS011;43403;51.948;5.922;2023-04-30T15:03:45;3.42;;;1.60;;
57567;SDS011;43403;51.948;5.922;2023-04-30T15:06:12;2.80;;;1.40;;
57567;SDS011;43403;51.948;5.922;2023-04-30T15:08:39;3.13;;;1.23;;
57567;SDS011;43403;51.948;5.922;2023-04-30T15:11:06;2.35;;;1.40;;
57567;SDS011;43403;51.948;5.922;2023-04-30T15:13:38;5.85;;;2.58;;
57567;SDS011;43403;51.948;5.922;2023-04-30T15:16:05;3.67;;;1.60;;
57567;SDS011;43403;51.948;5.922;2023-04-30T15:18:32;3.05;;;1.10;;
57567;SDS011;43403;51.948;5.922;2023-04-30T15:20:59;1.77;;;0.97;;
57567;SDS011;43403;51.948;5.922;2023-04-30T15:23:27;2.58;;;1.30;;
57567;SDS011;43403;51.948;5.922;2023-04-30T15:25:53;2.25;;;1.05;;
57567;SDS011;43403;51.948;5.922;2023-04-30T15:28:20;2.78;;;1.30;;
57567;SDS011;43403;51.948;5.922;2023-04-30T15:30:49;3.28;;;1.08;;
57567;SDS011;43403;51.948;5.922;2023-04-30T15:33:17;4.25;;;1.17;;
57567;SDS011;43403;51.948;5.922;2023-04-30T15:35:49;2.33;;;1.30;;
57567;SDS011;43403;51.948;5.922;2023-04-30T15:38:16;3.75;;;2.22;;
57567;SDS011;43403;51.948;5.922;2023-04-30T15:40:42;5.32;;;1.83;;